Tulihe, China
Current Conditions -  °F | °C
As of 4:30 AM on Wednesday 28 Jan 2015 (Local Time) from UHBB Reporting Station
Clear Clear  
Wind Chill: -19°   Ceiling: Unl
Heat Index: -8°   Visibility: 6mi
Dew Point: -15°   Wind: 4mph
Humidity: 71%   Direction: NA
Pressure: 30.33"   Gusts: NA
Location:  50.45°N, 121.7°E
Report Text: UHBB 272030Z VRB02MPS CAVOK M22/M26 Q1027 NOSIG RMK QFE752/100336410260
Loading
Personal Weather Stations






























Interactive Weather Map New forecast layout! Learn more

10-Day Weather Forecast

Advertisements
Track Severe Weather on mobile